| time (UTC) | temp F | wind direction | speed MPH | gust MPH | rain 1hr in | rain 24hr in | rain mn in | humidity % | barometer mb |
| 20260506073038 | 63 | 138 | 4.0 | 14.0 | 0.00 | 0.00 | 0.00 | 75 | 1012.4 |
| 20260506071536 | 63 | 143 | 6.0 | 13.0 | 0.00 | 0.00 | 0.00 | 74 | 1012.5 |
| 20260506061538 | 64 | 132 | 6.0 | 11.0 | 0.00 | 0.00 | 0.00 | 72 | 1012.7 |
| 20260506044544 | 66 | 126 | 6.0 | 17.0 | 0.00 | 0.00 | 0.00 | 69 | 1013.3 |
| 20260506043037 | 66 | 111 | 6.0 | 14.0 | 0.00 | 0.00 | 0.00 | 67 | 1013.1 |
| 20260506041536 | 67 | 111 | 9.0 | 17.0 | 0.00 | 0.00 | 0.00 | 65 | 1013.0 |
| 20260506040035 | 67 | 127 | 6.0 | 11.0 | 0.00 | 0.00 | 0.00 | 62 | 1013.0 |
| 20260506034533 | 67 | 147 | 7.0 | 16.0 | 0.00 | 0.00 | 0.00 | 59 | 1013.0 |
| 20260506033039 | 67 | 103 | 4.0 | 11.0 | 0.00 | 0.00 | 0.00 | 57 | 1013.0 |
| 20260506031538 | 67 | 138 | 3.0 | 8.0 | 0.00 | 0.00 | 0.00 | 56 | 1013.1 |
| 20260506030055 | 68 | 115 | 3.0 | 8.0 | 0.00 | 0.00 | 0.00 | 55 | 1013.2 |
| 20260506024547 | 68 | 113 | 3.0 | 8.0 | 0.00 | 0.00 | 0.00 | 54 | 1013.2 |
| 20260506023035 | 68 | 133 | 1.0 | 6.0 | 0.00 | 0.00 | 0.00 | 52 | 1013.3 |
| 20260506021537 | 69 | 125 | 2.0 | 7.0 | 0.00 | 0.00 | 0.00 | 50 | 1013.2 |
| 20260506020038 | 69 | 132 | 3.0 | 6.0 | 0.00 | 0.00 | 0.00 | 49 | 1013.1 |
| 20260506014552 | 70 | 121 | 2.0 | 7.0 | 0.00 | 0.00 | 0.00 | 47 | 1013.0 |
| 20260506013037 | 71 | 101 | 4.0 | 8.0 | 0.00 | 0.00 | 0.00 | 46 | 1013.0 |
| 20260506011538 | 72 | 145 | 3.0 | 9.0 | 0.00 | 0.00 | 0.00 | 44 | 1012.8 |
| 20260506010036 | 73 | 151 | 5.0 | 11.0 | 0.00 | 0.00 | 0.00 | 43 | 1012.5 |
| 20260506004547 | 73 | 144 | 4.0 | 9.0 | 0.00 | 0.00 | 0.00 | 42 | 1012.5 |
| 20260506003042 | 74 | 148 | 5.0 | 12.0 | 0.00 | 0.00 | 0.00 | 41 | 1012.3 |
| 20260506001537 | 74 | 190 | 6.0 | 13.0 | 0.00 | 0.00 | 0.00 | 41 | 1012.2 |
| 20260506000036 | 74 | 173 | 5.0 | 9.0 | 0.00 | 0.00 | 0.00 | 42 | 1012.3 |
| 20260505234536 | 75 | 130 | 4.0 | 11.0 | 0.00 | 0.00 | 0.00 | 42 | 1012.2 |
| 20260505233034 | 76 | 131 | 5.0 | 11.0 | 0.00 | 0.00 | 0.00 | 40 | 1011.8 |
| 20260505231534 | 77 | 173 | 5.0 | 11.0 | 0.00 | 0.00 | 0.00 | 39 | 1011.9 |
| 20260505230044 | 77 | 144 | 7.0 | 21.0 | 0.00 | 0.00 | 0.00 | 37 | 1011.9 |
| 20260505224538 | 78 | 148 | 7.0 | 17.0 | 0.00 | 0.00 | 0.00 | 36 | 1012.3 |
| 20260505223037 | 78 | 202 | 8.0 | 21.0 | 0.00 | 0.00 | 0.00 | 35 | 1012.1 |
| 20260505221535 | 79 | 182 | 8.0 | 18.0 | 0.00 | 0.00 | 0.00 | 34 | 1012.1 |
| 20260505220041 | 78 | 167 | 10.0 | 18.0 | 0.00 | 0.00 | 0.00 | 38 | 1012.1 |
| 20260505214538 | 79 | 138 | 6.0 | 18.0 | 0.00 | 0.00 | 0.00 | 38 | 1012.4 |
| 20260505213044 | 79 | 167 | 9.0 | 19.0 | 0.00 | 0.00 | 0.00 | 37 | 1012.3 |
| 20260505211536 | 79 | 156 | 9.0 | 20.0 | 0.00 | 0.00 | 0.00 | 36 | 1012.3 |
| 20260505210033 | 79 | 165 | 6.0 | 16.0 | 0.00 | 0.00 | 0.00 | 36 | 1012.3 |
| 20260505204534 | 78 | 153 | 8.0 | 21.0 | 0.00 | 0.00 | 0.00 | 36 | 1012.6 |
| 20260505203034 | 80 | 148 | 10.0 | 20.0 | 0.00 | 0.00 | 0.00 | 34 | 1012.6 |
| 20260505201537 | 80 | 186 | 9.0 | 22.0 | 0.00 | 0.00 | 0.00 | 33 | 1012.5 |
| 20260505200038 | 80 | 184 | 10.0 | 21.0 | 0.00 | 0.00 | 0.00 | 33 | 1012.8 |
| 20260505194534 | 80 | 176 | 10.0 | 16.0 | 0.00 | 0.00 | 0.00 | 34 | 1012.9 |
| 20260505193049 | 80 | 147 | 8.0 | 17.0 | 0.00 | 0.00 | 0.00 | 34 | 1013.1 |
| 20260505191539 | 79 | 142 | 8.0 | 19.0 | 0.00 | 0.00 | 0.00 | 35 | 1013.4 |
| 20260505190039 | 79 | 198 | 7.0 | 21.0 | 0.00 | 0.00 | 0.00 | 35 | 1013.6 |
| 20260505184537 | 79 | 171 | 10.0 | 18.0 | 0.00 | 0.00 | 0.00 | 34 | 1013.6 |
| 20260505183037 | 79 | 161 | 9.0 | 23.0 | 0.00 | 0.00 | 0.00 | 35 | 1013.8 |
| 20260505181535 | 80 | 152 | 9.0 | 18.0 | 0.00 | 0.00 | 0.00 | 36 | 1014.0 |
| 20260505180039 | 80 | 140 | 9.0 | 18.0 | 0.00 | 0.00 | 0.00 | 35 | 1014.4 |
| 20260505174539 | 79 | 157 | 6.0 | 16.0 | 0.00 | 0.00 | 0.00 | 36 | 1014.5 |
| 20260505173034 | 79 | 118 | 9.0 | 17.0 | 0.00 | 0.00 | 0.00 | 35 | 1014.6 |
| 20260505171545 | 78 | 190 | 9.0 | 17.0 | 0.00 | 0.00 | 0.00 | 36 | 1014.4 |
| 20260505170039 | 79 | 212 | 8.0 | 16.0 | 0.00 | 0.00 | 0.00 | 36 | 1014.7 |
| 20260505164539 | 78 | 150 | 5.0 | 13.0 | 0.00 | 0.00 | 0.00 | 39 | 1014.9 |
| 20260505163039 | 77 | 257 | 7.0 | 16.0 | 0.00 | 0.00 | 0.00 | 40 | 1015.0 |
| 20260505161537 | 77 | 226 | 4.0 | 11.0 | 0.00 | 0.00 | 0.00 | 43 | 1015.1 |
| 20260505153044 | 74 | 221 | 4.0 | 11.0 | 0.00 | 0.00 | 0.00 | 50 | 1015.5 |
| 20260505151534 | 73 | 156 | 3.0 | 8.0 | 0.00 | 0.00 | 0.00 | 52 | 1015.7 |
| 20260505124537 | 61 | 201 | 3.0 | 8.0 | 0.00 | 0.00 | 0.00 | 69 | 1015.4 |
| 20260505123047 | 60 | 162 | 3.0 | 9.0 | 0.00 | 0.00 | 0.00 | 71 | 1015.6 |
| 20260505121535 | 59 | 188 | 4.0 | 8.0 | 0.00 | 0.00 | 0.00 | 72 | 1015.6 |
| 20260505120050 | 58 | 170 | 4.0 | 8.0 | 0.00 | 0.00 | 0.00 | 74 | 1015.3 |
| 20260505114537 | 56 | 172 | 4.0 | 8.0 | 0.00 | 0.00 | 0.00 | 76 | 1015.2 |
| 20260505113035 | 56 | 171 | 2.0 | 6.0 | 0.00 | 0.00 | 0.00 | 78 | 1015.2 |
| 20260505111536 | 54 | 168 | 0.0 | 4.0 | 0.00 | 0.00 | 0.00 | 79 | 1015.0 |
| 20260505101535 | 55 | 0 | 1.0 | 3.0 | 0.00 | 0.00 | 0.00 | 76 | 1014.6 |
| 20260505100037 | 55 | 169 | 0.0 | 4.0 | 0.00 | 0.00 | 0.00 | 74 | 1014.6 |
| 20260505094537 | 56 | 169 | 1.0 | 5.0 | 0.00 | 0.00 | 0.00 | 73 | 1014.6 |
| 20260505093034 | 56 | 126 | 1.0 | 6.0 | 0.00 | 0.00 | 0.00 | 72 | 1014.5 |
| 20260505091537 | 57 | 157 | 3.0 | 8.0 | 0.00 | 0.00 | 0.00 | 71 | 1014.3 |
| 20260505090032 | 57 | 186 | 2.0 | 7.0 | 0.00 | 0.00 | 0.00 | 70 | 1014.1 |
| 20260505084558 | 57 | 161 | 3.0 | 7.0 | 0.00 | 0.00 | 0.00 | 70 | 1014.0 |
| 20260505083057 | 57 | 192 | 2.0 | 6.0 | 0.00 | 0.00 | 0.00 | 68 | 1014.1 |
| 20260505081552 | 57 | 170 | 2.0 | 5.0 | 0.00 | 0.00 | 0.00 | 67 | 1014.1 |